Dayton, Iowa
Current Conditions -  °F | °C
As of 7:15 AM on Tuesday 21 Oct 2014 (Local Time) from KEBS Reporting Station
NA  
Wind Chill: 31°   Ceiling: NA
Heat Index: 36°   Visibility: 10mi
Dew Point: 34°   Wind: 6mph
Humidity: 93%   Direction: 90°E
Pressure: 30.12"   Gusts: NA
Location:  42.26°N, 94.07°W
Report Text: KEBS 211215Z AUTO 09005KT 10SM 02/01 A3012 RMK AO2
Loading
Personal Weather Stations






























Interactive Weather Map
Tropical Storm Tracking
New forecast layout! Learn more

10-Day Weather Forecast

Advertisements
Track Severe Weather on mobile